sensor_id;sensor_type;location;lat;lon;timestamp;P1;durP1;ratioP1;P2;durP2;ratioP2
12792;SDS011;6460;42.684;23.260;2022-12-07T00:01:43;45.93;;;27.47;;
12792;SDS011;6460;42.684;23.260;2022-12-07T00:04:12;46.43;;;30.47;;
12792;SDS011;6460;42.684;23.260;2022-12-07T00:06:43;42.90;;;26.33;;
12792;SDS011;6460;42.684;23.260;2022-12-07T00:09:12;39.67;;;25.43;;
12792;SDS011;6460;42.684;23.260;2022-12-07T00:11:40;38.40;;;25.13;;
12792;SDS011;6460;42.684;23.260;2022-12-07T00:14:09;38.10;;;24.43;;
12792;SDS011;6460;42.684;23.260;2022-12-07T00:16:38;36.37;;;22.93;;
12792;SDS011;6460;42.684;23.260;2022-12-07T00:19:05;39.47;;;24.17;;
12792;SDS011;6460;42.684;23.260;2022-12-07T00:21:32;39.73;;;23.33;;
12792;SDS011;6460;42.684;23.260;2022-12-07T00:24:03;40.10;;;23.20;;
12792;SDS011;6460;42.684;23.260;2022-12-07T00:26:31;40.80;;;24.90;;
12792;SDS011;6460;42.684;23.260;2022-12-07T00:29:00;43.43;;;25.43;;
12792;SDS011;6460;42.684;23.260;2022-12-07T00:31:29;37.93;;;24.93;;
12792;SDS011;6460;42.684;23.260;2022-12-07T00:33:58;40.07;;;25.77;;
12792;SDS011;6460;42.684;23.260;2022-12-07T00:36:25;37.63;;;24.70;;
12792;SDS011;6460;42.684;23.260;2022-12-07T00:38:53;36.73;;;23.63;;
12792;SDS011;6460;42.684;23.260;2022-12-07T00:41:22;34.67;;;24.23;;
12792;SDS011;6460;42.684;23.260;2022-12-07T00:43:51;42.43;;;24.93;;
12792;SDS011;6460;42.684;23.260;2022-12-07T00:46:19;38.47;;;23.90;;
12792;SDS011;6460;42.684;23.260;2022-12-07T00:48:47;35.63;;;23.73;;
12792;SDS011;6460;42.684;23.260;2022-12-07T00:51:16;37.23;;;23.80;;
12792;SDS011;6460;42.684;23.260;2022-12-07T00:53:44;38.53;;;22.67;;
12792;SDS011;6460;42.684;23.260;2022-12-07T00:56:13;32.70;;;22.23;;
12792;SDS011;6460;42.684;23.260;2022-12-07T00:58:43;35.97;;;23.37;;
12792;SDS011;6460;42.684;23.260;2022-12-07T01:01:15;33.13;;;23.07;;
12792;SDS011;6460;42.684;23.260;2022-12-07T01:03:43;37.83;;;23.50;;
12792;SDS011;6460;42.684;23.260;2022-12-07T01:06:13;35.97;;;23.20;;
12792;SDS011;6460;42.684;23.260;2022-12-07T01:08:41;33.27;;;22.43;;
12792;SDS011;6460;42.684;23.260;2022-12-07T01:11:09;36.93;;;22.30;;
12792;SDS011;6460;42.684;23.260;2022-12-07T01:13:40;37.63;;;23.70;;
12792;SDS011;6460;42.684;23.260;2022-12-07T01:16:10;36.07;;;22.70;;
12792;SDS011;6460;42.684;23.260;2022-12-07T01:18:39;35.97;;;23.00;;
12792;SDS011;6460;42.684;23.260;2022-12-07T01:21:06;36.43;;;22.90;;
12792;SDS011;6460;42.684;23.260;2022-12-07T01:23:38;35.10;;;22.30;;
12792;SDS011;6460;42.684;23.260;2022-12-07T01:26:06;35.93;;;22.57;;
12792;SDS011;6460;42.684;23.260;2022-12-07T01:28:36;34.17;;;22.97;;
12792;SDS011;6460;42.684;23.260;2022-12-07T01:31:04;34.70;;;22.50;;
12792;SDS011;6460;42.684;23.260;2022-12-07T01:33:34;37.63;;;23.27;;
12792;SDS011;6460;42.684;23.260;2022-12-07T01:36:03;30.30;;;22.07;;
12792;SDS011;6460;42.684;23.260;2022-12-07T01:38:30;32.73;;;21.23;;
12792;SDS011;6460;42.684;23.260;2022-12-07T01:40:58;32.80;;;21.10;;
12792;SDS011;6460;42.684;23.260;2022-12-07T01:43:27;31.43;;;19.77;;
12792;SDS011;6460;42.684;23.260;2022-12-07T01:45:56;32.40;;;21.10;;
12792;SDS011;6460;42.684;23.260;2022-12-07T01:48:24;31.03;;;20.43;;
12792;SDS011;6460;42.684;23.260;2022-12-07T01:50:55;28.27;;;19.57;;
12792;SDS011;6460;42.684;23.260;2022-12-07T01:53:27;29.40;;;18.30;;
12792;SDS011;6460;42.684;23.260;2022-12-07T01:55:56;29.37;;;18.27;;
12792;SDS011;6460;42.684;23.260;2022-12-07T01:58:25;31.17;;;19.83;;
12792;SDS011;6460;42.684;23.260;2022-12-07T02:00:52;32.87;;;19.90;;
12792;SDS011;6460;42.684;23.260;2022-12-07T02:03:22;29.57;;;19.50;;
12792;SDS011;6460;42.684;23.260;2022-12-07T02:05:55;27.77;;;18.40;;
12792;SDS011;6460;42.684;23.260;2022-12-07T02:08:24;31.03;;;19.60;;
12792;SDS011;6460;42.684;23.260;2022-12-07T02:10:52;28.87;;;19.70;;
12792;SDS011;6460;42.684;23.260;2022-12-07T02:13:19;32.63;;;19.20;;
12792;SDS011;6460;42.684;23.260;2022-12-07T02:15:57;26.87;;;18.83;;
12792;SDS011;6460;42.684;23.260;2022-12-07T02:18:35;29.37;;;19.40;;
12792;SDS011;6460;42.684;23.260;2022-12-07T02:21:13;29.10;;;19.10;;
12792;SDS011;6460;42.684;23.260;2022-12-07T02:23:55;27.80;;;18.87;;
12792;SDS011;6460;42.684;23.260;2022-12-07T02:26:44;28.50;;;19.10;;
12792;SDS011;6460;42.684;23.260;2022-12-07T02:29:47;29.57;;;19.40;;
12792;SDS011;6460;42.684;23.260;2022-12-07T02:32:20;27.67;;;17.83;;
12792;SDS011;6460;42.684;23.260;2022-12-07T02:34:52;27.67;;;18.27;;
12792;SDS011;6460;42.684;23.260;2022-12-07T02:37:27;27.40;;;19.17;;
12792;SDS011;6460;42.684;23.260;2022-12-07T02:40:03;33.10;;;19.93;;
12792;SDS011;6460;42.684;23.260;2022-12-07T02:42:36;31.17;;;18.73;;
12792;SDS011;6460;42.684;23.260;2022-12-07T02:45:09;32.30;;;20.87;;
12792;SDS011;6460;42.684;23.260;2022-12-07T02:47:39;30.13;;;20.17;;
12792;SDS011;6460;42.684;23.260;2022-12-07T02:50:10;27.77;;;18.47;;
12792;SDS011;6460;42.684;23.260;2022-12-07T02:52:37;28.87;;;18.83;;
12792;SDS011;6460;42.684;23.260;2022-12-07T02:55:04;32.97;;;19.17;;
12792;SDS011;6460;42.684;23.260;2022-12-07T02:57:37;28.20;;;18.93;;
12792;SDS011;6460;42.684;23.260;2022-12-07T03:00:18;26.53;;;18.53;;
12792;SDS011;6460;42.684;23.260;2022-12-07T03:02:48;30.43;;;18.90;;
12792;SDS011;6460;42.684;23.260;2022-12-07T03:05:31;28.53;;;18.40;;
12792;SDS011;6460;42.684;23.260;2022-12-07T03:08:20;26.80;;;17.33;;
12792;SDS011;6460;42.684;23.260;2022-12-07T03:10:55;29.37;;;18.10;;
12792;SDS011;6460;42.684;23.260;2022-12-07T03:13:25;28.40;;;18.20;;
12792;SDS011;6460;42.684;23.260;2022-12-07T03:16:01;29.37;;;18.23;;
12792;SDS011;6460;42.684;23.260;2022-12-07T03:18:34;26.23;;;17.70;;
12792;SDS011;6460;42.684;23.260;2022-12-07T03:21:08;26.53;;;18.00;;
12792;SDS011;6460;42.684;23.260;2022-12-07T03:23:41;29.33;;;18.00;;
12792;SDS011;6460;42.684;23.260;2022-12-07T03:26:11;26.43;;;17.93;;
12792;SDS011;6460;42.684;23.260;2022-12-07T03:28:43;28.73;;;18.20;;
12792;SDS011;6460;42.684;23.260;2022-12-07T03:31:23;26.93;;;17.80;;
12792;SDS011;6460;42.684;23.260;2022-12-07T03:33:58;31.07;;;18.83;;
12792;SDS011;6460;42.684;23.260;2022-12-07T03:36:30;29.80;;;19.90;;
12792;SDS011;6460;42.684;23.260;2022-12-07T03:39:12;33.87;;;19.87;;
12792;SDS011;6460;42.684;23.260;2022-12-07T03:42:12;32.10;;;19.20;;
12792;SDS011;6460;42.684;23.260;2022-12-07T03:45:00;30.77;;;18.63;;
12792;SDS011;6460;42.684;23.260;2022-12-07T03:51:01;31.50;;;19.10;;
12792;SDS011;6460;42.684;23.260;2022-12-07T03:53:39;28.93;;;18.83;;
12792;SDS011;6460;42.684;23.260;2022-12-07T04:22:37;30.67;;;18.83;;
12792;SDS011;6460;42.684;23.260;2022-12-07T04:25:04;30.00;;;19.10;;
12792;SDS011;6460;42.684;23.260;2022-12-07T04:27:32;28.27;;;19.00;;
12792;SDS011;6460;42.684;23.260;2022-12-07T04:30:00;29.63;;;19.37;;
12792;SDS011;6460;42.684;23.260;2022-12-07T04:32:31;29.23;;;18.60;;
12792;SDS011;6460;42.684;23.260;2022-12-07T04:34:58;28.80;;;18.87;;
12792;SDS011;6460;42.684;23.260;2022-12-07T04:37:25;29.37;;;18.33;;
12792;SDS011;6460;42.684;23.260;2022-12-07T04:39:54;34.03;;;18.40;;
12792;SDS011;6460;42.684;23.260;2022-12-07T04:42:21;32.93;;;20.73;;
12792;SDS011;6460;42.684;23.260;2022-12-07T04:44:48;30.77;;;19.40;;
12792;SDS011;6460;42.684;23.260;2022-12-07T04:47:16;31.40;;;20.07;;
12792;SDS011;6460;42.684;23.260;2022-12-07T04:49:43;31.80;;;20.33;;
12792;SDS011;6460;42.684;23.260;2022-12-07T04:52:10;34.43;;;20.90;;
12792;SDS011;6460;42.684;23.260;2022-12-07T04:54:36;30.40;;;20.00;;
12792;SDS011;6460;42.684;23.260;2022-12-07T04:57:05;34.67;;;21.47;;
12792;SDS011;6460;42.684;23.260;2022-12-07T04:59:32;29.43;;;20.40;;
12792;SDS011;6460;42.684;23.260;2022-12-07T05:01:59;35.83;;;22.23;;
12792;SDS011;6460;42.684;23.260;2022-12-07T05:04:26;33.80;;;20.97;;
12792;SDS011;6460;42.684;23.260;2022-12-07T05:06:53;33.13;;;19.87;;
12792;SDS011;6460;42.684;23.260;2022-12-07T05:09:20;32.13;;;19.60;;
12792;SDS011;6460;42.684;23.260;2022-12-07T05:11:48;32.47;;;21.30;;
12792;SDS011;6460;42.684;23.260;2022-12-07T05:14:17;34.30;;;21.33;;
12792;SDS011;6460;42.684;23.260;2022-12-07T05:16:46;32.57;;;20.57;;
12792;SDS011;6460;42.684;23.260;2022-12-07T05:19:15;34.17;;;20.93;;
12792;SDS011;6460;42.684;23.260;2022-12-07T05:21:42;35.70;;;19.57;;
12792;SDS011;6460;42.684;23.260;2022-12-07T05:24:10;31.60;;;20.40;;
12792;SDS011;6460;42.684;23.260;2022-12-07T05:26:39;35.30;;;20.70;;
12792;SDS011;6460;42.684;23.260;2022-12-07T05:29:06;33.07;;;20.27;;
12792;SDS011;6460;42.684;23.260;2022-12-07T05:31:35;34.27;;;19.57;;
12792;SDS011;6460;42.684;23.260;2022-12-07T05:34:03;35.63;;;19.77;;
12792;SDS011;6460;42.684;23.260;2022-12-07T05:36:31;30.73;;;19.73;;
12792;SDS011;6460;42.684;23.260;2022-12-07T05:38:58;33.10;;;19.77;;
12792;SDS011;6460;42.684;23.260;2022-12-07T05:41:26;28.73;;;18.77;;
12792;SDS011;6460;42.684;23.260;2022-12-07T05:44:10;32.43;;;20.23;;
12792;SDS011;6460;42.684;23.260;2022-12-07T05:46:39;32.63;;;20.67;;
12792;SDS011;6460;42.684;23.260;2022-12-07T05:49:06;32.40;;;20.47;;
12792;SDS011;6460;42.684;23.260;2022-12-07T05:51:32;33.97;;;21.00;;
12792;SDS011;6460;42.684;23.260;2022-12-07T05:53:59;36.40;;;21.60;;
12792;SDS011;6460;42.684;23.260;2022-12-07T05:56:26;37.70;;;21.50;;
12792;SDS011;6460;42.684;23.260;2022-12-07T05:58:53;31.37;;;20.97;;
12792;SDS011;6460;42.684;23.260;2022-12-07T06:01:42;34.60;;;21.67;;
12792;SDS011;6460;42.684;23.260;2022-12-07T06:04:09;33.87;;;22.10;;
12792;SDS011;6460;42.684;23.260;2022-12-07T06:06:36;39.67;;;23.80;;
12792;SDS011;6460;42.684;23.260;2022-12-07T06:09:04;38.93;;;25.50;;
12792;SDS011;6460;42.684;23.260;2022-12-07T06:11:31;41.70;;;27.13;;
12792;SDS011;6460;42.684;23.260;2022-12-07T06:14:29;47.30;;;30.37;;
12792;SDS011;6460;42.684;23.260;2022-12-07T06:16:58;47.27;;;29.83;;
12792;SDS011;6460;42.684;23.260;2022-12-07T06:19:25;43.20;;;29.53;;
12792;SDS011;6460;42.684;23.260;2022-12-07T06:21:52;39.63;;;27.07;;
12792;SDS011;6460;42.684;23.260;2022-12-07T06:24:20;37.83;;;26.93;;
12792;SDS011;6460;42.684;23.260;2022-12-07T06:26:47;44.70;;;27.73;;
12792;SDS011;6460;42.684;23.260;2022-12-07T06:29:15;38.87;;;22.63;;
12792;SDS011;6460;42.684;23.260;2022-12-07T06:31:43;37.00;;;23.10;;
12792;SDS011;6460;42.684;23.260;2022-12-07T06:34:12;36.07;;;22.57;;
12792;SDS011;6460;42.684;23.260;2022-12-07T06:36:41;36.63;;;23.60;;
12792;SDS011;6460;42.684;23.260;2022-12-07T06:39:11;37.97;;;23.87;;
12792;SDS011;6460;42.684;23.260;2022-12-07T06:41:38;52.83;;;34.60;;
12792;SDS011;6460;42.684;23.260;2022-12-07T06:44:05;50.57;;;33.67;;
12792;SDS011;6460;42.684;23.260;2022-12-07T06:46:33;38.67;;;27.40;;
12792;SDS011;6460;42.684;23.260;2022-12-07T06:49:00;40.20;;;27.03;;
12792;SDS011;6460;42.684;23.260;2022-12-07T06:51:35;41.63;;;26.37;;
12792;SDS011;6460;42.684;23.260;2022-12-07T06:54:06;36.47;;;26.30;;
12792;SDS011;6460;42.684;23.260;2022-12-07T06:56:39;38.13;;;24.43;;
12792;SDS011;6460;42.684;23.260;2022-12-07T06:59:09;37.10;;;23.47;;
12792;SDS011;6460;42.684;23.260;2022-12-07T07:01:36;36.47;;;23.60;;
12792;SDS011;6460;42.684;23.260;2022-12-07T07:04:03;35.23;;;22.50;;
12792;SDS011;6460;42.684;23.260;2022-12-07T07:06:30;35.57;;;22.17;;
12792;SDS011;6460;42.684;23.260;2022-12-07T07:08:59;34.80;;;22.30;;
12792;SDS011;6460;42.684;23.260;2022-12-07T07:11:26;38.53;;;22.77;;
12792;SDS011;6460;42.684;23.260;2022-12-07T07:13:53;35.23;;;22.20;;
12792;SDS011;6460;42.684;23.260;2022-12-07T07:16:22;39.10;;;22.93;;
12792;SDS011;6460;42.684;23.260;2022-12-07T07:18:49;35.17;;;22.60;;
12792;SDS011;6460;42.684;23.260;2022-12-07T07:21:16;34.70;;;22.37;;
12792;SDS011;6460;42.684;23.260;2022-12-07T07:23:43;36.57;;;23.37;;
12792;SDS011;6460;42.684;23.260;2022-12-07T07:26:12;41.63;;;24.33;;
12792;SDS011;6460;42.684;23.260;2022-12-07T07:28:51;34.77;;;23.80;;
12792;SDS011;6460;42.684;23.260;2022-12-07T07:31:39;39.90;;;24.30;;
12792;SDS011;6460;42.684;23.260;2022-12-07T07:34:18;39.53;;;23.57;;
12792;SDS011;6460;42.684;23.260;2022-12-07T07:36:53;43.93;;;25.03;;
12792;SDS011;6460;42.684;23.260;2022-12-07T07:39:23;41.93;;;24.97;;
12792;SDS011;6460;42.684;23.260;2022-12-07T07:41:52;40.67;;;25.93;;
12792;SDS011;6460;42.684;23.260;2022-12-07T07:44:21;40.77;;;24.97;;
12792;SDS011;6460;42.684;23.260;2022-12-07T07:46:53;43.07;;;25.43;;
12792;SDS011;6460;42.684;23.260;2022-12-07T07:49:27;46.00;;;25.37;;
12792;SDS011;6460;42.684;23.260;2022-12-07T07:52:07;38.13;;;23.70;;
12792;SDS011;6460;42.684;23.260;2022-12-07T07:55:09;40.40;;;25.00;;
12792;SDS011;6460;42.684;23.260;2022-12-07T07:57:54;40.37;;;25.13;;
12792;SDS011;6460;42.684;23.260;2022-12-07T08:00:34;41.77;;;24.10;;
12792;SDS011;6460;42.684;23.260;2022-12-07T08:03:15;44.03;;;26.47;;
12792;SDS011;6460;42.684;23.260;2022-12-07T08:05:42;47.73;;;27.27;;
12792;SDS011;6460;42.684;23.260;2022-12-07T08:08:10;42.50;;;26.47;;
12792;SDS011;6460;42.684;23.260;2022-12-07T08:10:38;46.27;;;28.13;;
12792;SDS011;6460;42.684;23.260;2022-12-07T08:13:11;48.60;;;28.00;;
12792;SDS011;6460;42.684;23.260;2022-12-07T08:15:43;46.87;;;26.77;;
12792;SDS011;6460;42.684;23.260;2022-12-07T08:18:11;47.43;;;27.27;;
12792;SDS011;6460;42.684;23.260;2022-12-07T08:20:39;46.47;;;27.07;;
12792;SDS011;6460;42.684;23.260;2022-12-07T08:23:07;47.17;;;30.63;;
12792;SDS011;6460;42.684;23.260;2022-12-07T08:25:35;55.27;;;33.20;;
12792;SDS011;6460;42.684;23.260;2022-12-07T08:28:07;55.73;;;30.87;;
12792;SDS011;6460;42.684;23.260;2022-12-07T08:30:37;48.63;;;30.23;;
12792;SDS011;6460;42.684;23.260;2022-12-07T08:33:05;52.83;;;31.17;;
12792;SDS011;6460;42.684;23.260;2022-12-07T08:35:32;52.67;;;31.03;;
12792;SDS011;6460;42.684;23.260;2022-12-07T08:38:00;49.80;;;29.80;;
12792;SDS011;6460;42.684;23.260;2022-12-07T08:40:33;46.03;;;28.87;;
12792;SDS011;6460;42.684;23.260;2022-12-07T08:43:01;48.27;;;30.27;;
12792;SDS011;6460;42.684;23.260;2022-12-07T08:45:28;49.03;;;29.83;;
12792;SDS011;6460;42.684;23.260;2022-12-07T08:48:00;49.97;;;31.97;;
12792;SDS011;6460;42.684;23.260;2022-12-07T08:50:31;54.33;;;33.07;;
12792;SDS011;6460;42.684;23.260;2022-12-07T08:53:00;51.87;;;31.90;;
12792;SDS011;6460;42.684;23.260;2022-12-07T08:55:29;51.73;;;31.73;;
12792;SDS011;6460;42.684;23.260;2022-12-07T08:57:58;63.60;;;36.33;;
12792;SDS011;6460;42.684;23.260;2022-12-07T09:00:26;59.40;;;35.07;;
12792;SDS011;6460;42.684;23.260;2022-12-07T09:02:56;59.47;;;34.63;;
12792;SDS011;6460;42.684;23.260;2022-12-07T09:05:25;52.90;;;31.57;;
12792;SDS011;6460;42.684;23.260;2022-12-07T09:07:54;54.70;;;33.07;;
12792;SDS011;6460;42.684;23.260;2022-12-07T09:10:26;50.37;;;31.77;;
12792;SDS011;6460;42.684;23.260;2022-12-07T09:12:53;51.67;;;33.03;;
12792;SDS011;6460;42.684;23.260;2022-12-07T09:15:20;57.43;;;34.33;;
12792;SDS011;6460;42.684;23.260;2022-12-07T09:17:47;56.70;;;33.83;;
12792;SDS011;6460;42.684;23.260;2022-12-07T09:20:15;60.10;;;35.53;;
12792;SDS011;6460;42.684;23.260;2022-12-07T09:22:44;59.53;;;35.77;;
12792;SDS011;6460;42.684;23.260;2022-12-07T09:25:11;57.73;;;34.77;;
12792;SDS011;6460;42.684;23.260;2022-12-07T09:27:40;57.17;;;35.40;;
12792;SDS011;6460;42.684;23.260;2022-12-07T09:30:08;58.27;;;36.30;;
12792;SDS011;6460;42.684;23.260;2022-12-07T09:32:36;52.93;;;35.70;;
12792;SDS011;6460;42.684;23.260;2022-12-07T09:35:03;52.90;;;33.77;;
12792;SDS011;6460;42.684;23.260;2022-12-07T09:37:31;52.73;;;33.87;;
12792;SDS011;6460;42.684;23.260;2022-12-07T09:40:03;51.77;;;33.07;;
12792;SDS011;6460;42.684;23.260;2022-12-07T09:42:35;48.87;;;32.33;;
12792;SDS011;6460;42.684;23.260;2022-12-07T09:45:05;53.33;;;33.20;;
12792;SDS011;6460;42.684;23.260;2022-12-07T09:47:37;52.63;;;32.83;;
12792;SDS011;6460;42.684;23.260;2022-12-07T09:50:05;48.13;;;32.23;;
12792;SDS011;6460;42.684;23.260;2022-12-07T09:52:38;51.93;;;31.00;;
12792;SDS011;6460;42.684;23.260;2022-12-07T09:55:11;48.30;;;29.87;;
12792;SDS011;6460;42.684;23.260;2022-12-07T09:57:39;50.33;;;31.37;;
12792;SDS011;6460;42.684;23.260;2022-12-07T10:00:10;44.43;;;29.80;;
12792;SDS011;6460;42.684;23.260;2022-12-07T10:02:40;46.53;;;30.13;;
12792;SDS011;6460;42.684;23.260;2022-12-07T10:05:12;45.07;;;28.63;;
12792;SDS011;6460;42.684;23.260;2022-12-07T10:07:40;42.43;;;27.53;;
12792;SDS011;6460;42.684;23.260;2022-12-07T10:10:13;40.13;;;27.13;;
12792;SDS011;6460;42.684;23.260;2022-12-07T10:12:59;36.50;;;25.30;;
12792;SDS011;6460;42.684;23.260;2022-12-07T10:15:42;36.90;;;24.13;;
12792;SDS011;6460;42.684;23.260;2022-12-07T10:18:17;36.73;;;23.40;;
12792;SDS011;6460;42.684;23.260;2022-12-07T10:20:46;39.90;;;24.40;;
12792;SDS011;6460;42.684;23.260;2022-12-07T10:23:14;36.23;;;24.13;;
12792;SDS011;6460;42.684;23.260;2022-12-07T10:25:45;42.63;;;24.63;;
12792;SDS011;6460;42.684;23.260;2022-12-07T10:28:15;34.63;;;23.50;;
12792;SDS011;6460;42.684;23.260;2022-12-07T10:30:48;36.63;;;23.77;;
12792;SDS011;6460;42.684;23.260;2022-12-07T10:33:30;38.23;;;24.20;;
12792;SDS011;6460;42.684;23.260;2022-12-07T10:36:00;36.37;;;23.27;;
12792;SDS011;6460;42.684;23.260;2022-12-07T10:38:43;37.33;;;23.73;;
12792;SDS011;6460;42.684;23.260;2022-12-07T10:41:14;35.90;;;21.60;;
12792;SDS011;6460;42.684;23.260;2022-12-07T10:43:49;31.30;;;22.37;;
12792;SDS011;6460;42.684;23.260;2022-12-07T10:52:39;37.63;;;21.90;;
12792;SDS011;6460;42.684;23.260;2022-12-07T10:55:20;34.10;;;22.77;;
12792;SDS011;6460;42.684;23.260;2022-12-07T11:00:42;30.83;;;21.27;;
12792;SDS011;6460;42.684;23.260;2022-12-07T11:03:18;29.20;;;21.40;;
12792;SDS011;6460;42.684;23.260;2022-12-07T11:06:00;33.13;;;22.00;;
12792;SDS011;6460;42.684;23.260;2022-12-07T11:08:39;30.77;;;20.10;;
12792;SDS011;6460;42.684;23.260;2022-12-07T11:11:34;30.80;;;19.27;;
12792;SDS011;6460;42.684;23.260;2022-12-07T11:17:16;34.67;;;21.07;;
12792;SDS011;6460;42.684;23.260;2022-12-07T11:20:00;38.63;;;22.20;;
12792;SDS011;6460;42.684;23.260;2022-12-07T11:22:46;31.50;;;21.07;;
12792;SDS011;6460;42.684;23.260;2022-12-07T11:25:46;29.93;;;20.47;;
12792;SDS011;6460;42.684;23.260;2022-12-07T11:28:23;36.07;;;22.83;;
12792;SDS011;6460;42.684;23.260;2022-12-07T11:31:03;33.97;;;21.77;;
12792;SDS011;6460;42.684;23.260;2022-12-07T11:33:47;32.07;;;21.80;;
12792;SDS011;6460;42.684;23.260;2022-12-07T11:36:30;36.40;;;20.23;;
12792;SDS011;6460;42.684;23.260;2022-12-07T11:39:10;27.67;;;16.83;;
12792;SDS011;6460;42.684;23.260;2022-12-07T11:42:01;24.80;;;17.87;;
12792;SDS011;6460;42.684;23.260;2022-12-07T11:44:36;24.47;;;17.17;;
12792;SDS011;6460;42.684;23.260;2022-12-07T11:47:12;26.97;;;17.03;;
12792;SDS011;6460;42.684;23.260;2022-12-07T11:50:09;29.40;;;18.23;;
12792;SDS011;6460;42.684;23.260;2022-12-07T11:52:51;30.50;;;17.67;;
12792;SDS011;6460;42.684;23.260;2022-12-07T11:55:42;25.23;;;17.27;;
12792;SDS011;6460;42.684;23.260;2022-12-07T11:58:19;27.10;;;16.90;;
12792;SDS011;6460;42.684;23.260;2022-12-07T12:01:05;26.93;;;18.70;;
12792;SDS011;6460;42.684;23.260;2022-12-07T12:03:46;30.60;;;19.37;;
12792;SDS011;6460;42.684;23.260;2022-12-07T12:06:22;25.97;;;17.30;;
12792;SDS011;6460;42.684;23.260;2022-12-07T12:08:56;28.27;;;18.17;;
12792;SDS011;6460;42.684;23.260;2022-12-07T12:11:47;26.67;;;17.60;;
12792;SDS011;6460;42.684;23.260;2022-12-07T12:17:39;25.83;;;17.40;;
12792;SDS011;6460;42.684;23.260;2022-12-07T12:20:19;31.27;;;18.67;;
12792;SDS011;6460;42.684;23.260;2022-12-07T12:22:55;30.83;;;17.47;;
12792;SDS011;6460;42.684;23.260;2022-12-07T12:25:27;26.53;;;17.07;;
12792;SDS011;6460;42.684;23.260;2022-12-07T12:28:24;25.83;;;18.07;;
12792;SDS011;6460;42.684;23.260;2022-12-07T12:34:37;26.10;;;17.43;;
12792;SDS011;6460;42.684;23.260;2022-12-07T12:37:39;31.37;;;19.23;;
12792;SDS011;6460;42.684;23.260;2022-12-07T12:49:31;23.17;;;15.80;;
12792;SDS011;6460;42.684;23.260;2022-12-07T12:55:20;27.93;;;17.93;;
12792;SDS011;6460;42.684;23.260;2022-12-07T13:10:36;28.53;;;17.20;;
12792;SDS011;6460;42.684;23.260;2022-12-07T13:13:31;22.17;;;17.20;;
12792;SDS011;6460;42.684;23.260;2022-12-07T13:19:00;28.23;;;17.03;;
12792;SDS011;6460;42.684;23.260;2022-12-07T13:21:43;21.20;;;16.67;;
12792;SDS011;6460;42.684;23.260;2022-12-07T13:24:12;26.33;;;15.83;;
12792;SDS011;6460;42.684;23.260;2022-12-07T13:26:41;24.90;;;16.33;;
12792;SDS011;6460;42.684;23.260;2022-12-07T13:29:12;21.50;;;15.30;;
12792;SDS011;6460;42.684;23.260;2022-12-07T13:31:45;22.27;;;15.30;;
12792;SDS011;6460;42.684;23.260;2022-12-07T13:34:28;24.07;;;15.00;;
12792;SDS011;6460;42.684;23.260;2022-12-07T13:37:04;22.50;;;15.40;;
12792;SDS011;6460;42.684;23.260;2022-12-07T13:39:44;22.00;;;15.07;;
12792;SDS011;6460;42.684;23.260;2022-12-07T13:42:15;18.30;;;14.53;;
12792;SDS011;6460;42.684;23.260;2022-12-07T13:44:50;28.97;;;16.60;;
12792;SDS011;6460;42.684;23.260;2022-12-07T13:47:19;20.50;;;15.40;;
12792;SDS011;6460;42.684;23.260;2022-12-07T13:49:58;21.97;;;15.70;;
12792;SDS011;6460;42.684;23.260;2022-12-07T13:52:26;23.93;;;17.07;;
12792;SDS011;6460;42.684;23.260;2022-12-07T13:54:55;24.83;;;17.07;;
12792;SDS011;6460;42.684;23.260;2022-12-07T13:57:24;22.10;;;15.73;;
12792;SDS011;6460;42.684;23.260;2022-12-07T13:59:56;22.70;;;15.07;;
12792;SDS011;6460;42.684;23.260;2022-12-07T14:02:25;21.03;;;14.63;;
12792;SDS011;6460;42.684;23.260;2022-12-07T14:05:05;21.43;;;13.23;;
12792;SDS011;6460;42.684;23.260;2022-12-07T14:07:35;20.50;;;13.57;;
12792;SDS011;6460;42.684;23.260;2022-12-07T14:10:25;18.30;;;12.60;;
12792;SDS011;6460;42.684;23.260;2022-12-07T14:12:54;18.93;;;13.00;;
12792;SDS011;6460;42.684;23.260;2022-12-07T14:15:42;18.90;;;12.80;;
12792;SDS011;6460;42.684;23.260;2022-12-07T14:18:24;20.50;;;13.60;;
12792;SDS011;6460;42.684;23.260;2022-12-07T14:21:02;18.67;;;12.10;;
12792;SDS011;6460;42.684;23.260;2022-12-07T14:23:30;18.20;;;12.57;;
12792;SDS011;6460;42.684;23.260;2022-12-07T14:26:05;21.50;;;13.03;;
12792;SDS011;6460;42.684;23.260;2022-12-07T14:28:35;18.57;;;13.13;;
12792;SDS011;6460;42.684;23.260;2022-12-07T14:31:07;21.10;;;12.37;;
12792;SDS011;6460;42.684;23.260;2022-12-07T14:33:43;18.07;;;12.90;;
12792;SDS011;6460;42.684;23.260;2022-12-07T14:36:11;22.73;;;13.70;;
12792;SDS011;6460;42.684;23.260;2022-12-07T14:38:39;24.87;;;14.17;;
12792;SDS011;6460;42.684;23.260;2022-12-07T14:41:12;18.60;;;12.97;;
12792;SDS011;6460;42.684;23.260;2022-12-07T14:43:59;18.30;;;13.47;;
12792;SDS011;6460;42.684;23.260;2022-12-07T14:46:28;19.23;;;13.33;;
12792;SDS011;6460;42.684;23.260;2022-12-07T14:48:55;24.77;;;14.10;;
12792;SDS011;6460;42.684;23.260;2022-12-07T14:51:22;20.93;;;12.73;;
12792;SDS011;6460;42.684;23.260;2022-12-07T14:53:49;25.40;;;14.70;;
12792;SDS011;6460;42.684;23.260;2022-12-07T14:56:18;27.13;;;14.57;;
12792;SDS011;6460;42.684;23.260;2022-12-07T14:58:46;28.87;;;14.83;;
12792;SDS011;6460;42.684;23.260;2022-12-07T15:01:13;24.07;;;15.13;;
12792;SDS011;6460;42.684;23.260;2022-12-07T15:03:42;24.77;;;15.77;;
12792;SDS011;6460;42.684;23.260;2022-12-07T15:06:10;24.43;;;15.47;;
12792;SDS011;6460;42.684;23.260;2022-12-07T15:08:41;22.73;;;14.70;;
12792;SDS011;6460;42.684;23.260;2022-12-07T15:11:09;33.37;;;16.80;;
12792;SDS011;6460;42.684;23.260;2022-12-07T15:13:40;41.03;;;24.27;;
12792;SDS011;6460;42.684;23.260;2022-12-07T15:16:24;30.13;;;16.17;;
12792;SDS011;6460;42.684;23.260;2022-12-07T15:18:53;39.53;;;21.47;;
12792;SDS011;6460;42.684;23.260;2022-12-07T15:21:20;35.63;;;22.97;;
12792;SDS011;6460;42.684;23.260;2022-12-07T15:23:47;40.67;;;22.37;;
12792;SDS011;6460;42.684;23.260;2022-12-07T15:26:15;42.53;;;23.10;;
12792;SDS011;6460;42.684;23.260;2022-12-07T15:28:42;37.17;;;23.07;;
12792;SDS011;6460;42.684;23.260;2022-12-07T15:31:11;40.63;;;20.73;;
12792;SDS011;6460;42.684;23.260;2022-12-07T15:33:38;31.57;;;19.17;;
12792;SDS011;6460;42.684;23.260;2022-12-07T15:36:08;29.53;;;16.37;;
12792;SDS011;6460;42.684;23.260;2022-12-07T15:38:45;47.13;;;27.13;;
12792;SDS011;6460;42.684;23.260;2022-12-07T15:41:13;48.63;;;27.77;;
12792;SDS011;6460;42.684;23.260;2022-12-07T15:43:44;28.70;;;19.07;;
12792;SDS011;6460;42.684;23.260;2022-12-07T15:46:29;28.30;;;17.73;;
12792;SDS011;6460;42.684;23.260;2022-12-07T15:48:57;35.87;;;19.23;;
12792;SDS011;6460;42.684;23.260;2022-12-07T15:51:28;31.73;;;18.43;;
12792;SDS011;6460;42.684;23.260;2022-12-07T15:53:56;32.27;;;19.20;;
12792;SDS011;6460;42.684;23.260;2022-12-07T15:56:25;38.70;;;20.93;;
12792;SDS011;6460;42.684;23.260;2022-12-07T15:58:52;50.87;;;25.97;;
12792;SDS011;6460;42.684;23.260;2022-12-07T16:01:20;26.10;;;16.67;;
12792;SDS011;6460;42.684;23.260;2022-12-07T16:03:48;25.30;;;15.97;;
12792;SDS011;6460;42.684;23.260;2022-12-07T16:06:17;23.47;;;15.47;;
12792;SDS011;6460;42.684;23.260;2022-12-07T16:08:57;31.37;;;18.60;;